Time;durP1;ratioP1;P1;durP2;ratioP2;P2;SDS_P1;SDS_P2;PMS_P1;PMS_P2;Temp;Humidity;BMP_temperature;BMP_pressure;BME280_temperature;BME280_humidity;BME280_pressure;Samples;Min_cycle;Max_cycle;Signal;HPM_P1;HPM_P2
2022/07/23 00:01:24;;;;;;;6.50;4.70;;;25.20;60.40;;;24.73;45.72;97320.56;5049820;28;20454;-74
2022/07/23 00:03:51;;;;;;;6.60;4.40;;;25.20;60.50;;;24.73;45.79;97330.59;5049759;28;20421;-75
2022/07/23 00:06:19;;;;;;;7.72;4.55;;;25.20;60.60;;;24.69;45.86;97330.50;5050014;28;20401;-75
2022/07/23 00:08:45;;;;;;;6.05;3.97;;;25.20;60.50;;;24.62;46.13;97328.38;5049306;28;20895;-75
2022/07/23 00:11:11;;;;;;;5.57;4.18;;;25.10;60.90;;;24.56;46.54;97313.50;5050106;28;20409;-75
2022/07/23 00:13:37;;;;;;;5.80;4.28;;;25.10;61.50;;;24.52;46.97;97318.00;5049816;28;20403;-75
2022/07/23 00:16:04;;;;;;;4.50;4.00;;;25.00;61.60;;;24.46;47.41;97313.97;5049849;28;20451;-75
2022/07/23 00:18:30;;;;;;;5.72;4.35;;;25.00;62.20;;;24.37;47.57;97317.94;5049198;28;20421;-75
2022/07/23 00:20:56;;;;;;;5.75;3.92;;;24.80;62.50;;;24.30;48.09;97316.59;5049459;28;20902;-75
2022/07/23 00:23:24;;;;;;;7.05;4.45;;;24.80;64.00;;;24.23;48.23;97311.00;5049704;28;20496;-74
2022/07/23 00:25:51;;;;;;;5.97;4.30;;;24.80;63.40;;;24.23;48.27;97318.31;5049751;28;20409;-74
2022/07/23 00:28:18;;;;;;;6.15;4.28;;;24.70;63.30;;;24.19;48.25;97312.00;5049487;28;20439;-75
2022/07/23 00:30:44;;;;;;;5.47;4.10;;;24.70;63.40;;;24.12;48.85;97303.66;5049446;28;20397;-75
2022/07/23 00:33:10;;;;;;;6.15;4.40;;;24.60;63.80;;;24.14;48.35;97306.78;5049657;28;20412;-74
2022/07/23 00:35:40;;;;;;;6.00;4.03;;;24.60;63.50;;;24.13;48.42;97297.88;5049801;28;20762;-74
2022/07/23 00:38:09;;;;;;;5.90;4.28;;;24.60;63.50;;;24.07;49.10;97303.88;5053334;28;20389;-73
2022/07/23 00:40:37;;;;;;;6.75;4.60;;;24.50;64.10;;;23.99;55.61;97302.88;5053477;28;20409;-74
2022/07/23 00:43:04;;;;;;;5.80;4.28;;;24.50;70.80;;;23.81;59.09;97296.94;5053824;28;20401;-74
2022/07/23 00:45:30;;;;;;;6.35;4.13;;;24.40;75.30;;;23.68;57.71;97289.94;5053429;28;20982;-74
2022/07/23 00:47:56;;;;;;;6.13;4.28;;;24.30;76.10;;;23.54;59.06;97268.66;5053570;28;20397;-74
2022/07/23 00:50:23;;;;;;;5.30;4.13;;;24.10;76.50;;;23.41;58.75;97271.66;5052808;28;20401;-74
2022/07/23 00:52:49;;;;;;;5.53;4.05;;;24.00;76.00;;;23.38;57.56;97277.75;5052262;28;20401;-74
2022/07/23 00:55:15;;;;;;;5.32;4.55;;;24.00;76.30;;;23.31;57.11;97278.28;5053026;28;20416;-73
2022/07/23 00:57:43;;;;;;;5.13;3.83;;;23.90;74.90;;;23.26;56.69;97272.31;5053445;28;20780;-74
2022/07/23 01:00:12;;;;;;;6.53;4.25;;;23.80;74.20;;;23.23;55.23;97294.63;5052471;28;20405;-74
2022/07/23 01:02:39;;;;;;;5.47;4.20;;;23.80;72.90;;;23.16;54.93;97300.53;5053240;28;21009;-73
2022/07/23 01:05:06;;;;;;;5.18;4.25;;;23.70;72.50;;;23.12;54.77;97294.25;5053072;28;20771;-74
2022/07/23 01:07:33;;;;;;;6.27;4.20;;;23.70;72.40;;;23.07;54.77;97297.16;5053209;28;20638;-74
2022/07/23 01:10:00;;;;;;;6.53;4.60;;;23.60;72.00;;;23.06;55.09;97287.50;5052588;28;20775;-74
2022/07/23 01:12:26;;;;;;;6.28;4.25;;;23.60;72.40;;;23.02;55.29;97283.88;5052854;28;20922;-74
2022/07/23 01:14:56;;;;;;;7.60;4.35;;;23.60;72.70;;;23.01;55.11;97274.19;5052940;28;20390;-74
2022/07/23 01:17:22;;;;;;;9.07;4.30;;;23.60;72.30;;;22.96;55.56;97232.00;5053102;28;20470;-74
2022/07/23 01:19:48;;;;;;;5.30;3.85;;;23.60;73.00;;;22.97;54.91;97241.69;5051952;28;20479;-74
2022/07/23 01:22:17;;;;;;;7.30;4.40;;;23.50;72.40;;;22.93;55.36;97245.41;5052655;28;20409;-75
2022/07/23 01:24:45;;;;;;;6.43;4.60;;;23.50;72.90;;;22.83;55.69;97249.31;5052692;28;20859;-74
2022/07/23 01:27:12;;;;;;;5.70;4.15;;;23.40;73.10;;;22.81;55.55;97259.63;5051467;28;20859;-74
2022/07/23 01:29:38;;;;;;;4.97;3.90;;;23.40;73.30;;;22.77;56.14;97259.53;5052202;28;20410;-74
2022/07/23 01:32:05;;;;;;;4.70;3.92;;;23.40;73.70;;;22.82;55.69;97244.22;5052438;28;20398;-74
2022/07/23 01:34:31;;;;;;;6.22;4.10;;;23.40;73.40;;;22.81;55.31;97232.66;5052209;28;20792;-74
2022/07/23 01:36:57;;;;;;;5.63;4.23;;;23.40;73.10;;;22.88;54.66;97222.09;5052496;28;20401;-74
2022/07/23 01:39:23;;;;;;;7.37;4.70;;;23.40;72.20;;;22.88;54.80;97222.09;5051948;28;20410;-74
2022/07/23 01:41:50;;;;;;;5.20;4.27;;;23.40;72.20;;;22.89;54.88;97222.88;5052294;28;20444;-74
2022/07/23 01:44:16;;;;;;;7.25;4.38;;;23.40;72.30;;;22.81;55.64;97237.25;5052193;28;20424;-74
2022/07/23 01:46:42;;;;;;;6.77;4.27;;;23.40;73.10;;;22.74;55.67;97232.41;5052324;28;20398;-74
2022/07/23 01:49:09;;;;;;;7.37;4.60;;;23.30;73.30;;;22.66;55.76;97233.25;5051657;28;20397;-74
2022/07/23 01:51:35;;;;;;;10.85;4.97;;;23.20;73.40;;;22.61;55.93;97233.47;5052039;28;20432;-74
2022/07/23 01:54:00;;;;;;;6.57;4.40;;;23.20;73.70;;;22.60;55.65;97205.69;5069692;22;20381;-76
2022/07/23 01:56:26;;;;;;;6.88;4.43;;;23.10;73.50;;;22.53;56.28;97213.53;5072102;28;20771;-77
2022/07/23 01:58:53;;;;;;;8.45;4.75;;;23.10;73.90;;;22.45;56.25;97240.59;5071456;28;20411;-75
2022/07/23 02:01:19;;;;;;;6.25;4.38;;;23.00;74.00;;;22.37;56.66;97264.63;5072138;28;20904;-79
2022/07/23 02:03:45;;;;;;;6.28;4.75;;;22.90;74.50;;;22.29;57.01;97272.78;5071962;28;20485;-78
2022/07/23 02:06:11;;;;;;;6.40;4.50;;;22.80;75.10;;;22.22;57.27;97270.59;5072327;28;20953;-78
2022/07/23 02:08:37;;;;;;;6.07;4.30;;;22.80;75.30;;;22.17;57.89;97272.72;5071493;28;20399;-77
2022/07/23 02:11:03;;;;;;;5.18;4.20;;;22.70;76.00;;;22.16;57.89;97266.53;5071868;28;20403;-78
2022/07/23 02:13:29;;;;;;;6.60;4.88;;;22.70;76.20;;;22.15;57.80;97264.94;5071862;28;20482;-77
2022/07/23 02:15:56;;;;;;;5.13;4.20;;;22.70;76.20;;;22.13;57.99;97274.47;5071791;28;20434;-77
2022/07/23 02:18:22;;;;;;;5.53;4.53;;;22.70;76.40;;;22.08;58.12;97278.16;5071363;28;20406;-77
2022/07/23 02:20:48;;;;;;;5.60;4.43;;;22.70;76.50;;;22.06;58.52;97274.19;5071550;28;20407;-77
2022/07/23 02:23:14;;;;;;;6.43;4.20;;;22.60;77.00;;;22.01;58.49;97275.19;5071827;28;20489;-78
2022/07/23 02:25:40;;;;;;;6.50;4.67;;;22.60;77.10;;;21.99;58.44;97294.38;5071640;28;20501;-78
2022/07/23 02:28:06;;;;;;;6.47;4.27;;;22.60;77.30;;;21.97;58.81;97306.59;5071184;28;20404;-79
2022/07/23 02:30:32;;;;;;;5.70;4.40;;;22.60;78.00;;;21.91;58.61;97308.69;5071204;28;20410;-77
2022/07/23 02:32:59;;;;;;;7.30;4.57;;;22.50;77.40;;;21.85;59.23;97312.69;5071574;28;20410;-78
2022/07/23 02:35:25;;;;;;;7.53;4.38;;;22.50;78.10;;;21.86;59.14;97314.25;5071490;28;20418;-78
2022/07/23 02:37:51;;;;;;;4.85;4.13;;;22.50;78.20;;;21.86;59.00;97329.63;5070269;28;20404;-78
2022/07/23 02:40:18;;;;;;;5.78;4.53;;;22.50;77.90;;;21.88;58.75;97330.09;5070749;28;20407;-78
2022/07/23 02:42:44;;;;;;;6.15;4.30;;;22.50;78.00;;;21.86;59.00;97349.28;5071512;28;20396;-77
2022/07/23 02:45:10;;;;;;;6.47;4.33;;;22.40;78.30;;;21.89;58.90;97351.31;5071159;28;20488;-78
2022/07/23 02:47:36;;;;;;;6.32;4.57;;;22.50;78.10;;;21.88;58.90;97354.34;5071387;28;20400;-77
2022/07/23 02:50:06;;;;;;;5.53;4.25;;;22.40;78.20;;;21.85;58.78;97350.41;5070585;28;20632;-78
2022/07/23 02:52:32;;;;;;;5.80;4.10;;;22.40;78.20;;;21.83;59.07;97359.91;5053339;28;20458;-77
2022/07/23 02:54:58;;;;;;;5.40;4.32;;;22.40;78.40;;;21.83;59.14;97359.91;5070842;28;20404;-78
2022/07/23 02:57:24;;;;;;;5.63;4.03;;;22.40;78.80;;;21.79;59.48;97353.63;5071078;28;20398;-78
2022/07/23 02:59:50;;;;;;;6.05;4.70;;;22.40;79.10;;;21.79;59.79;97345.53;5070138;28;20482;-78
2022/07/23 03:02:16;;;;;;;6.95;4.50;;;22.30;79.60;;;21.76;59.77;97349.66;5069536;28;20926;-79
2022/07/23 03:04:42;;;;;;;6.20;4.50;;;22.30;79.70;;;21.72;60.25;97348.72;5070950;28;20423;-77
2022/07/23 03:07:09;;;;;;;6.97;4.50;;;22.30;80.20;;;21.70;60.23;97366.31;5071014;28;20396;-78
2022/07/23 03:09:35;;;;;;;6.20;4.40;;;22.30;80.40;;;21.65;60.27;97363.81;5070107;28;20403;-77
2022/07/23 03:12:01;;;;;;;6.70;4.10;;;22.20;80.50;;;21.66;60.41;97373.47;5070697;28;20415;-77
2022/07/23 03:14:27;;;;;;;5.47;4.50;;;22.20;80.70;;;21.64;60.42;97368.41;5070948;28;20444;-77
2022/07/23 03:16:54;;;;;;;6.15;4.53;;;22.20;80.80;;;21.65;60.81;97380.78;5070749;28;20400;-77
2022/07/23 03:19:20;;;;;;;5.25;4.50;;;22.20;81.20;;;21.66;60.76;97376.16;5070295;28;20400;-77
2022/07/23 03:21:46;;;;;;;6.13;4.80;;;22.20;81.40;;;21.70;59.95;97369.81;5070528;28;20753;-78
2022/07/23 03:24:13;;;;;;;5.80;4.50;;;22.30;80.90;;;21.68;60.31;97373.94;5070194;28;20476;-78
2022/07/23 03:26:39;;;;;;;6.40;4.65;;;22.30;81.00;;;21.66;60.32;97368.84;5070452;28;20565;-78
2022/07/23 03:29:05;;;;;;;6.97;4.65;;;22.20;81.00;;;21.66;60.26;97357.28;5070001;28;20445;-78
2022/07/23 03:31:31;;;;;;;5.82;4.38;;;22.20;80.70;;;21.68;59.99;97357.75;5070301;28;20391;-78
2022/07/23 03:33:58;;;;;;;7.35;4.80;;;22.30;80.70;;;21.62;60.21;97349.88;5070251;28;20396;-78
2022/07/23 03:36:24;;;;;;;6.88;4.63;;;22.20;80.70;;;21.61;60.31;97359.06;5070381;28;20400;-77
2022/07/23 03:38:50;;;;;;;5.32;4.18;;;22.20;80.90;;;21.63;59.48;97354.16;5069686;28;20954;-77
2022/07/23 03:41:18;;;;;;;6.18;4.60;;;22.20;80.30;;;21.55;59.86;97351.47;5070104;28;20392;-77
2022/07/23 03:43:44;;;;;;;5.78;4.55;;;22.20;80.40;;;21.56;60.08;97353.06;5070500;28;20420;-77
2022/07/23 03:46:10;;;;;;;6.65;4.50;;;22.20;80.90;;;21.54;60.54;97355.28;5070341;28;20477;-77
2022/07/23 03:48:36;;;;;;;5.45;4.55;;;22.20;81.30;;;21.50;60.95;97346.28;5069575;28;20404;-78
2022/07/23 03:51:02;;;;;;;6.15;4.35;;;22.20;81.80;;;21.48;61.23;97349.28;5070054;28;20392;-79
2022/07/23 03:53:28;;;;;;;5.72;4.85;;;22.10;82.50;;;21.49;61.72;97356.25;5070149;28;20796;-77
2022/07/23 03:55:54;;;;;;;6.82;4.93;;;22.10;83.10;;;21.42;61.02;97358.66;5070171;28;20404;-79
2022/07/23 03:58:21;;;;;;;9.07;5.05;;;22.00;82.70;;;21.39;61.11;97362.00;5069622;28;20758;-79
2022/07/23 04:00:47;;;;;;;6.65;5.13;;;22.00;82.70;;;21.35;61.18;97369.09;5069693;28;20757;-79
2022/07/23 04:03:14;;;;;;;6.80;4.82;;;21.90;82.60;;;21.33;61.52;97354.41;5069818;28;20499;-79
2022/07/23 04:05:39;;;;;;;5.63;4.53;;;21.90;83.10;;;21.30;61.33;97361.22;5069608;28;20415;-79
2022/07/23 04:08:05;;;;;;;6.90;4.82;;;21.90;83.10;;;21.31;61.46;97362.81;5069299;28;20407;-78
2022/07/23 04:10:32;;;;;;;8.15;5.20;;;21.90;83.10;;;21.36;60.91;97372.59;5068735;28;20415;-80
2022/07/23 04:12:58;;;;;;;7.90;4.93;;;21.90;82.80;;;21.36;60.54;97370.69;5069853;28;20400;-79
2022/07/23 04:15:25;;;;;;;8.03;4.83;;;22.00;82.90;;;21.43;60.34;97373.69;5069708;28;20404;-79
2022/07/23 04:17:51;;;;;;;5.70;4.38;;;22.00;82.10;;;21.48;60.13;97370.03;5069787;28;20415;-78
2022/07/23 04:20:17;;;;;;;6.05;4.78;;;22.00;81.80;;;21.51;60.24;97372.09;5068956;28;20404;-78
2022/07/23 04:22:43;;;;;;;7.97;5.07;;;22.10;81.70;;;21.55;59.97;97379.22;5069795;28;20551;-78
2022/07/23 04:25:09;;;;;;;5.60;4.97;;;22.10;81.60;;;21.59;59.84;97380.13;5069690;28;20917;-78
2022/07/23 04:27:35;;;;;;;5.68;4.53;;;22.10;81.40;;;21.63;60.34;97380.28;5070095;28;20446;-78
2022/07/23 04:30:01;;;;;;;7.35;4.75;;;22.20;81.80;;;21.61;60.13;97380.63;5069319;28;20495;-78
2022/07/23 04:32:28;;;;;;;7.43;4.53;;;22.20;81.70;;;21.59;60.36;97382.81;5069629;28;20451;-79
2022/07/23 04:34:54;;;;;;;8.27;4.80;;;22.10;81.90;;;21.60;60.26;97383.63;5069698;28;20392;-79
2022/07/23 04:37:20;;;;;;;6.15;5.00;;;22.10;82.10;;;21.61;60.17;97388.69;5069813;28;20757;-79
2022/07/23 04:39:46;;;;;;;7.63;5.10;;;22.10;81.90;;;21.60;60.74;97379.03;5051182;28;20410;-79
2022/07/23 04:42:12;;;;;;;6.88;4.72;;;22.20;82.50;;;21.63;60.45;97383.78;5069473;28;20406;-78
2022/07/23 04:44:38;;;;;;;6.30;5.30;;;22.20;82.20;;;21.60;60.43;97378.25;5069760;28;20415;-78
2022/07/23 04:47:04;;;;;;;8.75;5.10;;;22.10;82.10;;;21.59;60.39;97380.13;5069615;28;20551;-79
2022/07/23 04:49:32;;;;;;;7.13;5.00;;;22.10;82.20;;;21.59;60.54;97382.03;5063738;28;20467;-79
2022/07/23 04:51:58;;;;;;;7.07;4.90;;;22.10;82.70;;;21.51;60.69;97374.78;5068237;28;20400;-79
2022/07/23 04:54:24;;;;;;;6.00;4.80;;;22.10;82.60;;;21.51;60.87;97374.78;5069347;28;20407;-76
2022/07/23 04:56:50;;;;;;;5.90;4.82;;;22.00;82.90;;;21.52;60.99;97379.84;5069564;28;20395;-77
2022/07/23 04:59:16;;;;;;;7.00;4.97;;;22.10;83.10;;;21.56;60.78;97371.91;5068939;28;20400;-76
2022/07/23 05:01:42;;;;;;;6.20;5.15;;;22.10;83.00;;;21.62;60.63;97371.41;5069231;28;20916;-77
2022/07/23 05:04:08;;;;;;;6.55;5.07;;;22.10;82.80;;;21.67;60.20;97389.31;5069342;28;20461;-76
2022/07/23 05:06:35;;;;;;;6.18;5.30;;;22.20;82.30;;;21.75;59.96;97395.78;5069383;28;20403;-76
2022/07/23 05:09:01;;;;;;;7.53;5.03;;;22.30;82.10;;;21.78;59.80;97373.59;5068819;28;20407;-78
2022/07/23 05:11:27;;;;;;;7.20;4.97;;;22.30;81.60;;;21.86;59.54;97373.56;5069659;28;20410;-78
2022/07/23 05:13:53;;;;;;;7.93;5.18;;;22.40;81.40;;;21.87;59.54;97387.81;5069606;28;20390;-78
2022/07/23 05:16:19;;;;;;;7.43;5.00;;;22.40;81.20;;;21.85;60.36;97392.72;5056423;28;20413;-75
2022/07/23 05:18:45;;;;;;;7.82;4.93;;;22.40;82.10;;;21.84;60.57;97385.75;5067930;28;20399;-76
2022/07/23 05:21:11;;;;;;;7.10;5.10;;;22.40;82.60;;;21.84;60.34;97385.75;5068632;28;20403;-76
2022/07/23 05:23:38;;;;;;;6.65;4.90;;;22.40;82.30;;;21.83;60.20;97387.66;5080147;28;20478;-79
2022/07/23 05:26:04;;;;;;;6.40;5.00;;;22.40;82.10;;;21.86;60.57;97389.72;5078913;28;20406;-79
2022/07/23 05:28:31;;;;;;;9.02;5.18;;;22.40;82.60;;;21.91;60.61;97397.63;5074905;28;20407;-76
2022/07/23 05:30:57;;;;;;;8.20;5.20;;;22.40;82.80;;;22.08;59.63;97394.09;5077247;28;20936;-78
2022/07/23 05:33:23;;;;;;;8.10;4.83;;;22.60;82.20;;;22.17;59.54;97391.34;5072570;28;20442;-77
2022/07/23 05:35:49;;;;;;;6.83;4.53;;;22.70;81.40;;;22.28;59.04;97403.31;5073045;28;20536;-79
2022/07/23 05:38:15;;;;;;;6.22;4.95;;;22.80;80.90;;;22.31;58.82;97408.88;5072890;28;20400;-78
2022/07/23 05:40:42;;;;;;;5.93;4.63;;;22.80;80.50;;;22.29;59.03;97407.59;5074681;28;20414;-77
2022/07/23 05:43:08;;;;;;;5.32;4.28;;;22.80;80.50;;;22.31;58.40;97421.56;5072371;28;20412;-76
2022/07/23 05:45:34;;;;;;;6.95;4.72;;;22.80;79.80;;;22.31;58.77;97419.66;5054257;28;20451;-79
2022/07/23 05:48:00;;;;;;;8.68;5.22;;;22.80;80.00;;;22.35;58.60;97422.47;5072337;28;20889;-78
2022/07/23 05:50:27;;;;;;;5.85;4.53;;;22.90;79.90;;;22.39;59.16;97415.34;5072177;28;20454;-76
2022/07/23 05:52:53;;;;;;;5.70;4.23;;;22.90;80.50;;;22.44;59.33;97428.63;5072333;28;20402;-76
2022/07/23 05:55:19;;;;;;;4.57;3.90;;;23.00;81.00;;;22.49;59.60;97423.03;5071987;28;20415;-76
2022/07/23 05:57:46;;;;;;;4.93;4.27;;;23.00;81.30;;;22.51;60.13;97425.41;5072394;28;20403;-75
2022/07/23 06:00:13;;;;;;;5.18;4.47;;;23.00;81.90;;;22.54;60.32;97432.84;5071295;28;20446;-75
2022/07/23 06:02:39;;;;;;;6.03;4.50;;;23.00;82.50;;;22.56;60.45;97436.78;5072264;28;20408;-76
2022/07/23 06:05:07;;;;;;;6.43;5.03;;;23.10;82.80;;;22.57;60.90;97443.75;5071979;28;20443;-76
2022/07/23 06:07:34;;;;;;;6.35;4.95;;;23.10;83.20;;;22.59;60.76;97435.34;5071961;28;20885;-75
2022/07/23 06:10:00;;;;;;;5.35;4.82;;;23.10;83.40;;;22.59;60.60;97433.44;5067600;28;20407;-74
2022/07/23 06:12:26;;;;;;;5.30;4.32;;;23.10;83.10;;;22.60;60.59;97429.63;5071272;28;20975;-74
2022/07/23 06:14:53;;;;;;;5.53;4.55;;;23.10;83.30;;;22.62;60.72;97416.63;5069384;28;20430;-72
2022/07/23 06:17:19;;;;;;;5.18;4.60;;;23.10;83.60;;;22.64;60.91;97403.56;5071915;28;20900;-74
2022/07/23 06:19:45;;;;;;;4.87;4.07;;;23.10;83.40;;;22.66;60.63;97401.34;5071171;28;20461;-72
2022/07/23 06:22:11;;;;;;;6.97;4.65;;;23.20;83.40;;;22.68;61.17;97401.81;5071685;28;21057;-73
2022/07/23 06:24:37;;;;;;;7.03;4.78;;;23.20;84.30;;;22.68;60.30;97407.19;5071561;28;20922;-74
2022/07/23 06:27:03;;;;;;;9.07;5.40;;;23.20;83.20;;;22.69;59.75;97416.09;5071721;28;20400;-74
2022/07/23 06:29:29;;;;;;;6.97;5.30;;;23.20;82.30;;;22.73;58.16;97422.41;5070993;28;20487;-73
2022/07/23 06:31:56;;;;;;;6.07;4.80;;;23.20;79.80;;;22.82;58.49;97439.34;5071467;28;20469;-74
2022/07/23 06:34:23;;;;;;;5.47;4.85;;;23.30;80.10;;;22.93;58.79;97442.47;5070285;28;20407;-73
2022/07/23 06:36:49;;;;;;;5.60;4.60;;;23.40;80.90;;;23.03;58.63;97440.13;5071654;28;20405;-73
2022/07/23 06:39:15;;;;;;;5.20;4.70;;;23.50;80.30;;;23.14;58.29;97437.84;5070802;28;20404;-74
2022/07/23 06:41:41;;;;;;;5.88;4.88;;;23.60;80.20;;;23.26;57.61;97443.28;5071306;28;20485;-73
2022/07/23 06:44:07;;;;;;;6.38;4.90;;;23.70;79.30;;;23.40;57.61;97441.06;5071256;28;20928;-75
2022/07/23 06:46:34;;;;;;;9.40;5.13;;;23.80;78.90;;;23.54;56.91;97448.91;5071404;28;20468;-75
2022/07/23 06:49:01;;;;;;;9.57;4.97;;;23.90;78.00;;;23.64;56.18;97456.59;5070822;28;20472;-74
2022/07/23 06:51:27;;;;;;;7.43;5.05;;;24.10;77.20;;;23.70;55.16;97465.28;5071086;28;20481;-73
2022/07/23 06:53:53;;;;;;;8.35;4.93;;;24.10;75.80;;;23.66;55.09;97472.50;5071139;28;20424;-73
2022/07/23 06:56:19;;;;;;;7.05;4.72;;;24.10;75.40;;;23.60;55.10;97469.22;5071244;28;20400;-74
2022/07/23 06:58:45;;;;;;;6.93;5.05;;;24.10;75.70;;;23.54;55.25;97467.81;5070418;28;20885;-75
2022/07/23 07:01:11;;;;;;;5.80;4.85;;;24.00;75.30;;;23.48;55.38;97478.06;5070408;28;20445;-75
2022/07/23 07:03:37;;;;;;;9.65;5.10;;;24.00;75.30;;;23.44;53.94;97473.63;5070642;28;20404;-78
2022/07/23 07:06:05;;;;;;;6.15;4.28;;;23.90;73.50;;;23.38;54.54;97480.38;5070297;28;20459;-76
2022/07/23 07:08:31;;;;;;;6.90;4.55;;;23.90;74.00;;;23.37;54.76;97482.28;5068578;28;20413;-79
2022/07/23 07:10:57;;;;;;;7.18;5.38;;;23.90;74.30;;;23.36;55.10;97488.81;5069867;28;20743;-79
2022/07/23 07:13:23;;;;;;;10.10;5.50;;;23.80;74.70;;;23.29;54.65;97495.84;5071281;28;20415;-76
2022/07/23 07:15:49;;;;;;;6.65;4.88;;;23.80;74.30;;;23.23;54.93;97481.75;5070870;28;20499;-76
2022/07/23 07:18:15;;;;;;;6.60;4.70;;;23.70;74.20;;;23.15;55.73;97471.81;5068979;28;20773;-77
2022/07/23 07:20:41;;;;;;;6.53;4.90;;;23.70;75.00;;;23.10;56.34;97447.69;5070219;28;20404;-75
2022/07/23 07:23:08;;;;;;;8.00;5.00;;;23.60;75.80;;;23.07;56.41;97456.47;5070676;28;20399;-75
2022/07/23 07:25:35;;;;;;;7.13;4.90;;;23.60;76.20;;;23.01;56.51;97473.97;5063960;28;20417;-75
2022/07/23 07:28:01;;;;;;;7.13;5.25;;;23.50;76.20;;;22.94;59.21;97477.22;5049882;28;20413;-76
2022/07/23 07:30:27;;;;;;;6.95;5.03;;;23.50;80.30;;;22.87;61.84;97471.53;5050275;28;20871;-75
2022/07/23 07:32:53;;;;;;;8.57;5.53;;;23.40;83.20;;;22.80;62.11;97478.56;5050615;28;20489;-75
2022/07/23 07:35:19;;;;;;;7.10;5.47;;;23.40;84.60;;;22.71;64.00;97474.00;5050240;28;20417;-75
2022/07/23 07:37:44;;;;;;;7.28;5.78;;;23.20;87.20;;;22.67;63.65;97489.28;5050464;28;20400;-74
2022/07/23 07:40:12;;;;;;;5.88;4.93;;;23.20;87.80;;;22.69;62.86;97489.75;5049653;28;20899;-75
2022/07/23 07:42:45;;;;;;;8.98;6.03;;;23.20;87.10;;;22.76;61.60;97494.66;5050561;28;20479;-75
2022/07/23 07:45:11;;;;;;;6.65;5.22;;;23.30;85.10;;;22.94;61.79;97504.19;5049982;28;20409;-75
2022/07/23 07:47:37;;;;;;;6.88;5.60;;;23.40;85.60;;;23.13;61.03;97514.56;5050528;28;20404;-75
2022/07/23 07:50:04;;;;;;;6.97;5.55;;;23.60;84.70;;;23.31;59.10;97520.59;5049865;28;20899;-75
2022/07/23 07:52:30;;;;;;;8.18;5.47;;;23.70;82.00;;;23.36;58.79;97525.84;5050261;28;20424;-75
2022/07/23 07:54:56;;;;;;;9.13;5.68;;;23.80;80.70;;;23.54;56.54;97528.06;5057281;22;20453;-75
2022/07/23 07:57:23;;;;;;;7.85;5.32;;;23.90;78.80;;;23.46;56.05;97528.09;5030154;28;20403;-75
2022/07/23 07:59:49;;;;;;;7.20;5.47;;;24.00;77.00;;;23.45;57.08;97532.75;5029408;28;20488;-75
2022/07/23 08:02:15;;;;;;;6.88;4.97;;;24.00;78.00;;;23.47;56.21;97541.28;5029787;28;20494;-75
2022/07/23 08:04:41;;;;;;;6.93;5.68;;;24.00;77.00;;;23.54;56.77;97548.91;5030083;28;21034;-76
2022/07/23 08:07:07;;;;;;;7.18;4.78;;;24.00;77.30;;;23.60;56.94;97546.81;5028828;28;20768;-75
2022/07/23 08:09:33;;;;;;;5.88;4.85;;;24.00;77.70;;;23.69;55.49;97537.47;5029358;28;20503;-75
2022/07/23 08:11:59;;;;;;;7.07;5.20;;;24.10;76.50;;;23.74;54.53;97545.41;5029735;28;20407;-75
2022/07/23 08:14:26;;;;;;;7.17;4.73;;;24.30;74.90;;;23.73;54.93;97554.63;5029969;28;20891;-75
2022/07/23 08:16:52;;;;;;;6.50;5.50;;;24.30;74.80;;;23.69;55.92;97547.50;5029720;28;20414;-76
2022/07/23 08:19:18;;;;;;;6.18;4.85;;;24.20;75.90;;;23.61;55.99;97534.84;5029295;28;20411;-75
2022/07/23 08:21:43;;;;;;;7.27;4.80;;;24.10;75.80;;;23.50;56.07;97535.28;5029767;28;20464;-75
2022/07/23 08:24:09;;;;;;;6.83;4.80;;;24.00;76.00;;;23.44;56.48;97531.16;5029668;28;20490;-75
2022/07/23 08:26:36;;;;;;;5.18;4.40;;;24.00;76.50;;;23.39;56.58;97531.34;5029851;28;20407;-76
2022/07/23 08:29:02;;;;;;;5.20;4.47;;;23.90;76.70;;;23.29;56.81;97526.38;5029137;28;20410;-76
2022/07/23 08:31:37;;;;;;;5.30;4.60;;;23.80;77.00;;;23.21;57.22;97521.81;5029663;28;20403;-77
2022/07/23 08:34:03;;;;;;;5.20;4.53;;;23.70;77.40;;;23.21;57.25;97521.03;5029617;28;20407;-75
2022/07/23 08:36:32;;;;;;;5.57;4.17;;;23.70;77.80;;;23.30;57.42;97519.84;5029819;28;20580;-75
2022/07/23 08:38:58;;;;;;;5.20;4.28;;;23.70;78.20;;;23.50;56.96;97529.88;5029040;28;20414;-75
2022/07/23 08:41:24;;;;;;;7.75;4.72;;;23.90;77.60;;;23.69;55.67;97533.97;5029402;28;20411;-76
2022/07/23 08:43:50;;;;;;;5.72;4.85;;;24.10;75.80;;;23.82;54.47;97519.41;5029630;28;20395;-75
2022/07/23 08:46:18;;;;;;;8.20;4.97;;;24.30;74.00;;;23.97;53.87;97521.47;5029312;28;20415;-76
2022/07/23 08:48:48;;;;;;;6.53;4.97;;;24.40;73.30;;;24.13;53.74;97522.38;5028926;28;20635;-76
2022/07/23 08:51:14;;;;;;;6.40;4.78;;;24.60;73.30;;;24.29;54.10;97520.63;5029730;28;20406;-76
2022/07/23 08:53:41;;;;;;;5.85;4.95;;;24.70;73.30;;;24.43;53.09;97523.03;5028259;28;20793;-76
2022/07/23 08:56:08;;;;;;;7.63;5.00;;;24.90;72.10;;;24.55;52.76;97519.53;5029463;28;20414;-76
2022/07/23 08:58:34;;;;;;;7.07;4.97;;;25.00;71.60;;;24.69;50.44;97522.69;5032668;28;20472;-76
2022/07/23 09:01:01;;;;;;;6.45;4.80;;;25.20;68.60;;;24.85;50.06;97526.28;5033296;28;20438;-76
2022/07/23 09:03:30;;;;;;;4.68;4.20;;;25.30;68.10;;;25.07;49.54;97525.06;5033547;28;20403;-76
2022/07/23 09:06:00;;;;;;;5.40;4.35;;;25.50;67.80;;;25.35;49.46;97522.38;5033082;28;20419;-75
2022/07/23 09:08:35;;;;;;;5.30;4.30;;;25.70;67.90;;;25.58;48.91;97525.34;5033010;28;20895;-75
2022/07/23 09:11:03;;;;;;;7.90;4.32;;;25.90;66.50;;;25.82;47.73;97526.06;5033196;28;20490;-75
2022/07/23 09:13:34;;;;;;;4.68;4.13;;;26.20;65.00;;;26.01;46.25;97525.38;5033152;28;20428;-75
2022/07/23 09:16:04;;;;;;;5.18;4.20;;;26.40;63.40;;;26.14;45.01;97523.41;5033297;28;20395;-76
2022/07/23 09:18:41;;;;;;;5.55;4.30;;;26.50;61.70;;;26.26;46.01;97517.91;5032707;28;20441;-76
2022/07/23 09:21:23;;;;;;;5.80;4.20;;;26.60;62.50;;;26.39;46.41;97513.22;5033047;28;20402;-75
2022/07/23 09:23:56;;;;;;;7.35;4.65;;;26.70;63.30;;;26.52;46.83;97503.81;5032970;28;20901;-75
2022/07/23 09:26:35;;;;;;;5.03;4.05;;;26.80;63.40;;;26.62;46.38;97510.63;5033034;28;20738;-75
2022/07/23 09:29:10;;;;;;;5.80;4.20;;;27.00;63.10;;;26.74;46.10;97514.03;5032340;28;20756;-75
2022/07/23 09:31:46;;;;;;;5.05;4.18;;;27.10;62.50;;;26.87;45.72;97503.84;5033055;28;20493;-75
2022/07/23 09:34:16;;;;;;;5.90;4.22;;;27.20;62.20;;;26.88;45.08;97510.84;5032588;28;20522;-75
2022/07/23 09:36:44;;;;;;;4.78;3.90;;;27.20;61.50;;;26.92;46.03;97511.75;5032721;28;20403;-75
2022/07/23 09:39:12;;;;;;;7.47;4.68;;;27.30;62.10;;;27.11;43.21;97503.63;5032092;28;20427;-75
2022/07/23 09:41:42;;;;;;;7.50;4.63;;;27.40;59.40;;;27.20;41.19;97504.22;5032443;28;20398;-74
2022/07/23 09:44:14;;;;;;;6.38;4.53;;;27.70;57.00;;;27.30;41.32;97495.50;5032408;28;20764;-76
2022/07/23 09:46:41;;;;;;;6.65;4.20;;;27.80;57.00;;;27.19;42.06;97488.28;5032664;28;20479;-76
2022/07/23 09:49:17;;;;;;;5.85;4.70;;;27.60;57.30;;;27.16;42.63;97494.41;5031954;28;20407;-75
2022/07/23 09:51:52;;;;;;;5.22;4.47;;;27.60;58.30;;;27.15;43.55;97493.63;5032334;28;20465;-75
2022/07/23 09:54:33;;;;;;;4.80;4.28;;;27.60;58.90;;;27.20;44.43;97493.34;5031968;28;20835;-75
2022/07/23 09:57:02;;;;;;;5.53;4.30;;;27.60;59.90;;;27.28;45.08;97505.94;5032353;28;20399;-76
2022/07/23 09:59:33;;;;;;;5.33;4.00;;;27.70;60.50;;;27.30;44.29;97511.00;5031645;28;20498;-76
2022/07/23 10:02:00;;;;;;;6.30;4.35;;;27.70;59.70;;;27.40;43.63;97501.50;5032085;28;20431;-76
2022/07/23 10:04:28;;;;;;;5.33;4.07;;;27.80;59.00;;;27.56;42.85;97505.75;5031879;28;20427;-76
2022/07/23 10:06:58;;;;;;;5.78;4.25;;;28.00;58.60;;;27.75;41.32;97494.06;5032129;28;20421;-76
2022/07/23 10:09:28;;;;;;;5.18;4.00;;;28.20;56.90;;;27.92;41.59;97496.31;5030072;28;20402;-76
2022/07/23 10:12:03;;;;;;;4.45;3.97;;;28.30;57.10;;;28.04;42.87;97500.81;5031786;28;20884;-76
2022/07/23 10:14:32;;;;;;;7.00;4.35;;;28.40;57.80;;;28.20;42.76;97506.16;5031813;28;20900;-76
2022/07/23 10:17:00;;;;;;;6.00;4.50;;;28.60;58.30;;;28.33;42.68;97500.19;5031978;28;20772;-76
2022/07/23 10:19:27;;;;;;;5.07;4.18;;;28.70;57.80;;;28.40;42.13;97500.31;5031362;28;20418;-76